createdAt,value
2023-05-10T00:00:42.393Z,2.10
2023-05-10T00:03:13.749Z,1.67
2023-05-10T00:05:45.155Z,1.50
2023-05-10T00:08:16.493Z,1.70
2023-05-10T00:10:47.879Z,1.87
2023-05-10T00:13:19.354Z,2.10
2023-05-10T00:15:51.503Z,1.70
2023-05-10T00:18:22.786Z,1.80
2023-05-10T00:20:54.135Z,2.27
2023-05-10T00:23:25.459Z,2.03
2023-05-10T00:25:57.273Z,2.10
2023-05-10T00:28:29.685Z,1.90
2023-05-10T00:31:00.971Z,1.80
2023-05-10T00:33:32.293Z,1.83
2023-05-10T00:36:03.864Z,1.80
2023-05-10T00:38:35.239Z,1.70
2023-05-10T00:41:06.606Z,2.40
2023-05-10T00:43:38.017Z,2.20
2023-05-10T00:46:09.358Z,2.10
2023-05-10T00:48:40.904Z,2.30
2023-05-10T00:51:12.373Z,2.73
2023-05-10T00:53:46.305Z,2.20
2023-05-10T00:56:18.019Z,1.93
2023-05-10T00:58:50.136Z,2.23
2023-05-10T01:01:21.482Z,2.03
2023-05-10T01:03:53.434Z,2.07
2023-05-10T01:06:24.902Z,2.00
2023-05-10T01:08:57.348Z,1.80
2023-05-10T01:11:28.786Z,1.83
2023-05-10T01:14:03.027Z,2.00
2023-05-10T01:16:38.099Z,2.13
2023-05-10T01:19:17.088Z,2.40
2023-05-10T01:22:25.968Z,2.00
2023-05-10T01:25:31.595Z,2.03
2023-05-10T01:28:47.714Z,2.20
2023-05-10T01:31:31.183Z,1.93
2023-05-10T01:34:10.584Z,2.20
2023-05-10T01:37:08.638Z,2.10
2023-05-10T01:39:59.033Z,2.37
2023-05-10T01:42:40.599Z,1.97
2023-05-10T01:45:29.762Z,1.87
2023-05-10T01:48:09.257Z,1.90
2023-05-10T01:50:44.092Z,2.10
2023-05-10T01:53:19.539Z,2.00
2023-05-10T01:55:53.929Z,2.30
2023-05-10T01:58:31.411Z,1.97
2023-05-10T02:01:05.350Z,2.33
2023-05-10T02:03:38.854Z,2.37
2023-05-10T02:06:11.676Z,2.13
2023-05-10T02:08:44.558Z,1.93
2023-05-10T02:11:16.497Z,2.27
2023-05-10T02:13:50.074Z,2.60
2023-05-10T02:16:26.190Z,2.03
2023-05-10T02:21:32.040Z,2.03
2023-05-10T02:24:05.041Z,2.57
2023-05-10T02:26:37.350Z,2.27
2023-05-10T02:29:10.647Z,2.37
2023-05-10T02:31:44.437Z,2.33
2023-05-10T02:34:15.879Z,2.30
2023-05-10T02:36:48.015Z,2.30
2023-05-10T02:39:21.756Z,1.93
2023-05-10T02:41:54.465Z,2.10
2023-05-10T02:44:28.908Z,2.20
2023-05-10T02:47:00.804Z,2.57
2023-05-10T02:49:32.145Z,2.20
2023-05-10T02:52:07.860Z,2.30
2023-05-10T02:54:44.728Z,1.90
2023-05-10T02:57:42.700Z,2.30
2023-05-10T03:00:14.331Z,2.30
2023-05-10T03:02:45.867Z,2.10
2023-05-10T03:05:17.257Z,2.20
2023-05-10T03:07:49.201Z,2.50
2023-05-10T03:10:27.652Z,2.63
2023-05-10T03:13:24.036Z,2.87
2023-05-10T03:16:04.330Z,2.20
2023-05-10T03:19:06.470Z,2.10
2023-05-10T03:21:42.401Z,2.60
2023-05-10T03:24:16.454Z,1.92
2023-05-10T03:26:48.837Z,2.60
2023-05-10T03:29:21.290Z,2.30
2023-05-10T03:31:53.019Z,2.13
2023-05-10T03:34:25.553Z,2.40
2023-05-10T03:36:57.031Z,2.40
2023-05-10T03:39:28.399Z,2.43
2023-05-10T03:41:59.799Z,2.53
2023-05-10T03:44:31.172Z,2.50
2023-05-10T03:47:02.646Z,2.30
2023-05-10T03:49:34.119Z,2.53
2023-05-10T03:52:06.174Z,1.90
2023-05-10T03:54:37.459Z,2.47
2023-05-10T03:57:08.768Z,2.60
2023-05-10T03:59:40.126Z,2.10
2023-05-10T04:02:11.685Z,2.40
2023-05-10T04:04:43.212Z,2.23
2023-05-10T04:07:14.838Z,2.20
2023-05-10T04:09:46.255Z,2.20
2023-05-10T04:12:17.556Z,2.37
2023-05-10T04:14:48.853Z,2.17
2023-05-10T04:17:20.211Z,2.07
2023-05-10T04:19:53.952Z,2.47
2023-05-10T04:22:25.337Z,2.23
2023-05-10T04:24:56.790Z,2.30
2023-05-10T04:27:28.058Z,2.40
2023-05-10T04:29:59.529Z,2.57
2023-05-10T04:32:31.144Z,2.53
2023-05-10T04:35:04.448Z,2.60
2023-05-10T04:37:35.778Z,2.40
2023-05-10T04:40:07.818Z,2.67
2023-05-10T04:42:42.005Z,2.20
2023-05-10T04:45:15.456Z,2.63
2023-05-10T04:47:46.756Z,2.17
2023-05-10T04:50:18.502Z,2.10
2023-05-10T04:52:49.975Z,2.70
2023-05-10T04:55:21.263Z,2.70
2023-05-10T04:57:52.652Z,2.23
2023-05-10T05:00:24.327Z,2.50
2023-05-10T05:02:55.694Z,2.53
2023-05-10T05:05:27.161Z,2.53
2023-05-10T05:07:58.413Z,2.57
2023-05-10T05:10:29.723Z,2.37
2023-05-10T05:13:01.106Z,2.70
2023-05-10T05:15:32.644Z,2.97
2023-05-10T05:18:04.119Z,2.63
2023-05-10T05:20:35.632Z,2.50
2023-05-10T05:23:08.642Z,2.80
2023-05-10T05:25:39.928Z,2.20
2023-05-10T05:28:11.288Z,2.40
2023-05-10T05:30:42.561Z,2.30
2023-05-10T05:33:16.960Z,2.37
2023-05-10T05:35:51.588Z,2.30
2023-05-10T05:38:23.216Z,2.60
2023-05-10T05:40:54.497Z,2.60
2023-05-10T05:43:25.994Z,2.27
2023-05-10T05:45:58.936Z,2.73
2023-05-10T05:48:31.046Z,2.30
2023-05-10T05:51:02.554Z,2.00
2023-05-10T05:53:34.697Z,2.53
2023-05-10T05:56:06.202Z,2.63
2023-05-10T05:58:37.541Z,2.33
2023-05-10T06:01:09.844Z,2.70
2023-05-10T06:03:41.213Z,2.73
2023-05-10T06:06:13.418Z,2.83
2023-05-10T06:08:44.692Z,2.53
2023-05-10T06:11:16.170Z,2.63
2023-05-10T06:13:48.030Z,2.27
2023-05-10T06:16:19.354Z,2.53
2023-05-10T06:18:50.698Z,2.37
2023-05-10T06:21:22.192Z,2.20
2023-05-10T06:23:53.450Z,2.50
2023-05-10T06:26:24.833Z,3.20
2023-05-10T06:28:56.088Z,2.57
2023-05-10T06:31:27.446Z,2.13
2023-05-10T06:33:58.816Z,2.47
2023-05-10T06:36:30.116Z,2.57
2023-05-10T06:39:02.005Z,2.17
2023-05-10T06:41:33.380Z,2.27
2023-05-10T06:44:04.996Z,2.43
2023-05-10T06:46:36.427Z,2.53
2023-05-10T06:49:07.778Z,2.40
2023-05-10T06:51:39.051Z,2.37
2023-05-10T06:54:10.425Z,2.60
2023-05-10T06:56:41.720Z,2.20
2023-05-10T06:59:14.514Z,2.40
2023-05-10T07:01:45.906Z,2.37
2023-05-10T07:04:18.500Z,2.43
2023-05-10T07:06:50.620Z,2.50
2023-05-10T07:09:21.973Z,2.20
2023-05-10T07:11:53.272Z,2.43
2023-05-10T07:14:24.559Z,2.40
2023-05-10T07:16:56.158Z,2.40
2023-05-10T07:19:27.628Z,2.60
2023-05-10T07:21:59.115Z,2.43
2023-05-10T07:24:30.841Z,2.40
2023-05-10T07:27:02.136Z,2.37
2023-05-10T07:29:34.552Z,2.40
2023-05-10T07:32:06.690Z,2.80
2023-05-10T07:34:38.007Z,2.43
2023-05-10T07:37:09.405Z,3.50
2023-05-10T07:39:40.883Z,2.20
2023-05-10T07:42:12.181Z,2.93
2023-05-10T07:44:44.184Z,2.63
2023-05-10T07:47:15.514Z,2.70
2023-05-10T07:49:46.783Z,2.60
2023-05-10T07:52:18.176Z,2.67
2023-05-10T07:54:49.440Z,2.83
2023-05-10T07:57:20.736Z,2.50
2023-05-10T07:59:52.008Z,2.60
2023-05-10T08:02:23.398Z,2.60
2023-05-10T08:04:54.884Z,2.70
2023-05-10T08:07:26.271Z,2.53
2023-05-10T08:10:04.472Z,2.70
2023-05-10T08:12:36.163Z,3.00
2023-05-10T08:15:08.055Z,2.67
2023-05-10T08:17:39.524Z,2.97
2023-05-10T08:20:11.042Z,3.07
2023-05-10T08:22:42.298Z,3.20
2023-05-10T08:25:13.704Z,2.70
2023-05-10T08:27:45.022Z,2.67
2023-05-10T08:30:16.530Z,3.80
2023-05-10T08:32:47.874Z,3.03
2023-05-10T08:35:19.226Z,3.13
2023-05-10T08:37:50.553Z,3.57
2023-05-10T08:40:21.889Z,3.07
2023-05-10T08:43:10.502Z,3.43
2023-05-10T08:45:46.150Z,3.13
2023-05-10T08:48:17.480Z,3.00
2023-05-10T08:50:51.118Z,3.03
2023-05-10T08:53:25.787Z,3.87
2023-05-10T08:55:57.886Z,3.00
2023-05-10T08:58:29.316Z,3.50
2023-05-10T09:01:01.899Z,3.37
2023-05-10T09:03:33.435Z,3.40
2023-05-10T09:06:05.936Z,3.50
2023-05-10T09:08:37.510Z,3.20
2023-05-10T09:11:10.497Z,3.80
2023-05-10T09:13:42.845Z,4.20
2023-05-10T09:18:51.839Z,4.27
2023-05-10T09:21:23.126Z,4.10
2023-05-10T09:23:55.217Z,4.03
2023-05-10T09:26:26.572Z,4.07
2023-05-10T09:28:59.707Z,4.20
2023-05-10T09:31:51.903Z,4.40
2023-05-10T09:34:31.339Z,4.10
2023-05-10T09:37:05.177Z,4.20
2023-05-10T09:39:39.929Z,4.33
2023-05-10T09:42:11.313Z,4.77
2023-05-10T09:44:44.365Z,4.70
2023-05-10T09:47:21.936Z,4.70
2023-05-10T09:49:53.986Z,4.77
2023-05-10T09:52:25.860Z,4.80
2023-05-10T09:54:57.221Z,5.30
2023-05-10T09:57:28.574Z,5.50
2023-05-10T10:00:01.321Z,5.30
2023-05-10T10:02:32.770Z,5.70
2023-05-10T10:05:04.845Z,5.37
2023-05-10T10:07:36.761Z,4.90
2023-05-10T10:10:12.454Z,5.43
2023-05-10T10:12:44.068Z,5.55
2023-05-10T10:15:16.926Z,5.23
2023-05-10T10:17:50.168Z,5.63
2023-05-10T10:20:23.558Z,5.57
2023-05-10T10:22:54.850Z,5.20
2023-05-10T10:25:26.634Z,5.90
2023-05-10T10:28:07.669Z,4.97
2023-05-10T10:30:47.868Z,5.43
2023-05-10T10:33:55.465Z,5.07
2023-05-10T10:36:28.065Z,5.90
2023-05-10T10:39:01.621Z,5.50
2023-05-10T10:41:37.488Z,5.97
2023-05-10T10:44:24.763Z,6.03
2023-05-10T10:47:26.009Z,5.40
2023-05-10T10:50:05.886Z,6.00
2023-05-10T10:52:44.386Z,6.03
2023-05-10T10:55:23.253Z,6.07
2023-05-10T10:58:01.430Z,6.77
2023-05-10T11:00:41.778Z,6.80
2023-05-10T11:03:15.751Z,5.53
2023-05-10T11:05:48.325Z,6.23
2023-05-10T11:08:29.726Z,6.30
2023-05-10T11:11:01.153Z,6.30
2023-05-10T11:13:38.764Z,6.07
2023-05-10T11:16:13.086Z,6.30
2023-05-10T11:19:05.192Z,5.93
2023-05-10T11:21:49.612Z,5.87
2023-05-10T11:24:23.637Z,6.13
2023-05-10T11:26:55.233Z,5.80
2023-05-10T11:29:27.516Z,6.23
2023-05-10T11:32:00.764Z,5.77
2023-05-10T11:34:35.740Z,5.67
2023-05-10T11:37:07.080Z,5.63
2023-05-10T11:39:38.362Z,5.90
2023-05-10T11:42:10.822Z,5.70
2023-05-10T11:44:42.871Z,5.50
2023-05-10T11:47:14.245Z,5.33
2023-05-10T11:49:46.438Z,6.53
2023-05-10T11:52:20.008Z,6.03
2023-05-10T11:54:55.270Z,5.87
2023-05-10T11:57:28.944Z,5.57
2023-05-10T12:00:00.728Z,5.30
2023-05-10T12:02:32.219Z,5.57
2023-05-10T12:05:06.117Z,4.77
2023-05-10T12:07:37.485Z,4.97
2023-05-10T12:10:18.419Z,5.27
2023-05-10T12:12:53.389Z,5.43
2023-05-10T12:15:25.664Z,4.43
2023-05-10T12:17:57.835Z,5.27
2023-05-10T12:20:29.812Z,5.70
2023-05-10T12:23:03.969Z,5.03
2023-05-10T12:25:36.891Z,5.63
2023-05-10T12:28:10.054Z,5.73
2023-05-10T12:30:41.449Z,5.67
2023-05-10T12:33:15.651Z,5.00
2023-05-10T12:35:54.993Z,5.50
2023-05-10T12:38:32.930Z,4.80
2023-05-10T12:41:09.447Z,4.97
2023-05-10T12:43:41.240Z,5.40
2023-05-10T12:46:15.067Z,4.97
2023-05-10T12:48:48.330Z,4.80
2023-05-10T12:51:22.841Z,4.87
2023-05-10T12:53:55.304Z,4.80
2023-05-10T12:56:26.868Z,4.37
2023-05-10T12:58:58.142Z,4.27
2023-05-10T13:01:29.506Z,4.70
2023-05-10T13:04:01.222Z,4.27
2023-05-10T13:06:32.807Z,4.00
2023-05-10T13:09:04.379Z,3.67
2023-05-10T13:11:36.166Z,4.38
2023-05-10T13:14:07.944Z,4.20
2023-05-10T13:16:39.502Z,4.05
2023-05-10T13:19:12.518Z,3.70
2023-05-10T13:21:45.389Z,3.47
2023-05-10T13:24:17.836Z,3.67
2023-05-10T13:26:49.450Z,3.55
2023-05-10T13:29:21.951Z,3.72
2023-05-10T13:31:53.457Z,3.53
2023-05-10T13:34:25.151Z,3.30
2023-05-10T13:36:57.106Z,3.38
2023-05-10T13:39:28.440Z,3.60
2023-05-10T13:41:59.745Z,3.28
2023-05-10T13:44:31.081Z,3.60
2023-05-10T13:47:02.652Z,3.45
2023-05-10T13:49:34.953Z,3.85
2023-05-10T13:52:09.587Z,3.75
2023-05-10T13:54:40.890Z,3.20
2023-05-10T13:57:14.676Z,3.60
2023-05-10T13:59:45.954Z,2.80
2023-05-10T14:02:17.279Z,3.20
2023-05-10T14:04:49.261Z,3.38
2023-05-10T14:07:20.569Z,3.15
2023-05-10T14:09:51.941Z,2.70
2023-05-10T14:12:23.245Z,2.63
2023-05-10T14:14:54.539Z,3.00
2023-05-10T14:17:25.855Z,2.50
2023-05-10T14:19:57.195Z,2.63
2023-05-10T14:22:28.516Z,2.30
2023-05-10T14:24:59.893Z,2.60
2023-05-10T14:27:31.565Z,2.58
2023-05-10T14:30:03.303Z,2.88
2023-05-10T14:32:34.915Z,2.67
2023-05-10T14:35:07.162Z,2.90
2023-05-10T14:37:38.641Z,2.65
2023-05-10T14:40:10.675Z,2.83
2023-05-10T14:42:43.174Z,2.63
2023-05-10T14:45:14.816Z,2.80
2023-05-10T14:47:46.297Z,2.38
2023-05-10T14:50:32.297Z,2.90
2023-05-10T14:53:07.056Z,3.75
2023-05-10T14:55:39.229Z,3.03
2023-05-10T14:58:10.677Z,3.38
2023-05-10T15:00:42.006Z,4.22
2023-05-10T15:03:13.704Z,4.07
2023-05-10T15:05:45.663Z,4.43
2023-05-10T15:08:17.027Z,4.07
2023-05-10T15:10:48.677Z,4.10
2023-05-10T15:13:19.968Z,3.57
2023-05-10T15:15:51.444Z,3.83
2023-05-10T15:18:25.959Z,2.40
2023-05-10T15:20:58.787Z,2.73
2023-05-10T15:23:30.843Z,3.23
2023-05-10T15:26:02.556Z,3.40
2023-05-10T15:28:34.462Z,3.80
2023-05-10T15:31:06.233Z,3.40
2023-05-10T15:33:38.863Z,3.27
2023-05-10T15:36:10.161Z,3.27
2023-05-10T15:38:41.485Z,2.97
2023-05-10T15:41:12.846Z,3.17
2023-05-10T15:43:44.129Z,2.83
2023-05-10T15:46:15.677Z,3.20
2023-05-10T15:48:47.014Z,3.87
2023-05-10T15:51:19.571Z,3.23
2023-05-10T15:54:05.731Z,3.50
2023-05-10T15:56:39.344Z,3.43
2023-05-10T15:59:12.919Z,3.13
2023-05-10T16:01:44.570Z,3.00
2023-05-10T16:04:16.233Z,2.30
2023-05-10T16:06:47.754Z,1.87
2023-05-10T16:09:19.025Z,1.87
2023-05-10T16:11:50.415Z,2.10
2023-05-10T16:14:22.886Z,2.30
2023-05-10T16:16:54.319Z,1.87
2023-05-10T16:19:29.031Z,2.10
2023-05-10T16:22:01.568Z,1.90
2023-05-10T16:24:34.348Z,2.03
2023-05-10T16:27:05.820Z,2.20
2023-05-10T16:29:37.081Z,2.40
2023-05-10T16:32:08.337Z,2.07
2023-05-10T16:34:39.644Z,1.87
2023-05-10T16:37:11.293Z,2.13
2023-05-10T16:39:42.718Z,2.57
2023-05-10T16:42:14.006Z,2.60
2023-05-10T16:44:45.467Z,2.37
2023-05-10T16:47:17.168Z,2.67
2023-05-10T16:49:48.920Z,2.63
2023-05-10T16:52:20.275Z,2.50
2023-05-10T16:54:51.655Z,2.13
2023-05-10T16:57:23.243Z,2.10
2023-05-10T16:59:54.688Z,2.57
2023-05-10T17:02:26.343Z,2.27
2023-05-10T17:04:58.807Z,2.20
2023-05-10T17:07:30.597Z,2.30
2023-05-10T17:10:02.183Z,2.60
2023-05-10T17:12:34.093Z,2.50
2023-05-10T17:15:06.054Z,2.40
2023-05-10T17:17:38.632Z,2.23
2023-05-10T17:20:10.503Z,2.43
2023-05-10T17:22:41.856Z,2.20
2023-05-10T17:25:13.186Z,2.00
2023-05-10T17:27:44.509Z,2.67
2023-05-10T17:30:16.024Z,2.27
2023-05-10T17:32:47.365Z,2.20
2023-05-10T17:35:18.760Z,1.93
2023-05-10T17:37:50.413Z,2.27
2023-05-10T17:40:21.828Z,2.10
2023-05-10T17:42:53.210Z,1.90
2023-05-10T17:45:24.633Z,1.90
2023-05-10T17:47:56.013Z,1.87
2023-05-10T17:50:27.494Z,1.50
2023-05-10T17:52:58.828Z,1.07
2023-05-10T17:55:30.767Z,1.10
2023-05-10T17:58:02.035Z,0.70
2023-05-10T18:00:36.121Z,0.57
2023-05-10T18:03:07.726Z,0.47
2023-05-10T18:05:39.393Z,0.50
2023-05-10T18:08:10.779Z,0.40
2023-05-10T18:10:42.141Z,0.50
2023-05-10T18:13:13.506Z,0.60
2023-05-10T18:15:44.950Z,0.60
2023-05-10T18:18:16.913Z,0.47
2023-05-10T18:20:49.278Z,0.60
2023-05-10T18:23:20.899Z,0.60
2023-05-10T18:25:52.878Z,0.50
2023-05-10T18:28:27.080Z,0.60
2023-05-10T18:30:58.423Z,0.50
2023-05-10T18:33:29.821Z,0.80
2023-05-10T18:36:02.297Z,0.67
2023-05-10T18:38:33.784Z,0.80
2023-05-10T18:41:05.868Z,0.60
2023-05-10T18:43:37.264Z,0.63
2023-05-10T18:46:08.885Z,0.87
2023-05-10T18:48:40.808Z,0.63
2023-05-10T18:51:15.290Z,0.70
2023-05-10T18:53:46.702Z,0.80
2023-05-10T18:56:18.021Z,0.70
2023-05-10T18:58:49.484Z,0.50
2023-05-10T19:01:21.262Z,0.60
2023-05-10T19:03:52.715Z,0.50
2023-05-10T19:06:24.048Z,0.80
2023-05-10T19:08:58.309Z,0.70
2023-05-10T19:11:32.187Z,0.60
2023-05-10T19:14:05.584Z,0.50
2023-05-10T19:16:37.182Z,0.57
2023-05-10T19:19:08.789Z,0.60
2023-05-10T19:21:40.954Z,0.47
2023-05-10T19:24:13.455Z,0.63
2023-05-10T19:26:46.899Z,0.50
2023-05-10T19:29:18.303Z,0.50
2023-05-10T19:31:49.797Z,0.53
2023-05-10T19:34:21.274Z,0.50
2023-05-10T19:36:52.952Z,0.77
2023-05-10T19:39:24.435Z,0.60
2023-05-10T19:41:55.704Z,0.73
2023-05-10T19:44:27.112Z,0.43
2023-05-10T19:46:58.901Z,0.70
2023-05-10T19:49:30.568Z,0.73
2023-05-10T19:52:03.289Z,0.80
2023-05-10T19:54:34.702Z,0.70
2023-05-10T19:57:06.319Z,0.57
2023-05-10T19:59:37.644Z,0.70
2023-05-10T20:02:09.012Z,0.70
2023-05-10T20:04:40.325Z,0.60
2023-05-10T20:07:12.248Z,0.80
2023-05-10T20:09:44.257Z,1.50
2023-05-10T20:12:15.620Z,1.90
2023-05-10T20:14:46.886Z,1.17
2023-05-10T20:17:18.163Z,0.70
2023-05-10T20:19:49.536Z,1.10
2023-05-10T20:22:20.901Z,0.90
2023-05-10T20:24:54.306Z,0.70
2023-05-10T20:27:28.159Z,1.20
2023-05-10T20:29:59.448Z,0.97
2023-05-10T20:32:30.780Z,1.10
2023-05-10T20:35:02.598Z,1.10
2023-05-10T20:37:34.233Z,0.80
2023-05-10T20:40:06.051Z,1.00
2023-05-10T20:42:37.534Z,0.80
2023-05-10T20:45:09.498Z,1.00
2023-05-10T20:47:41.171Z,1.20
2023-05-10T20:50:12.517Z,1.00
2023-05-10T20:52:43.893Z,0.90
2023-05-10T20:55:15.496Z,0.80
2023-05-10T20:57:46.999Z,1.03
2023-05-10T21:00:18.744Z,0.83
2023-05-10T21:02:50.431Z,1.00
2023-05-10T21:05:21.981Z,1.10
2023-05-10T21:07:54.366Z,1.73
2023-05-10T21:10:28.145Z,2.20
2023-05-10T21:12:59.454Z,2.00
2023-05-10T21:15:30.780Z,1.60
2023-05-10T21:18:02.177Z,1.93
2023-05-10T21:20:33.510Z,1.60
2023-05-10T21:23:04.823Z,1.90
2023-05-10T21:25:36.261Z,1.63
2023-05-10T21:28:07.710Z,1.80
2023-05-10T21:30:39.092Z,1.30
2023-05-10T21:33:10.395Z,1.37
2023-05-10T21:35:42.902Z,1.53
2023-05-10T21:38:14.379Z,1.77
2023-05-10T21:40:45.693Z,1.77
2023-05-10T21:43:16.987Z,1.63
2023-05-10T21:45:48.271Z,1.73
2023-05-10T21:48:19.732Z,1.83
2023-05-10T21:50:51.084Z,1.90
2023-05-10T21:53:22.521Z,1.70
2023-05-10T21:55:57.699Z,1.50
2023-05-10T21:58:29.109Z,1.33
2023-05-10T22:01:00.718Z,1.47
2023-05-10T22:03:32.036Z,1.73
2023-05-10T22:06:03.606Z,1.80
2023-05-10T22:08:34.918Z,1.60
2023-05-10T22:11:06.240Z,2.27
2023-05-10T22:13:37.520Z,1.70
2023-05-10T22:16:08.820Z,2.17
2023-05-10T22:18:40.216Z,2.30
2023-05-10T22:21:11.585Z,2.67
2023-05-10T22:23:42.928Z,3.37
2023-05-10T22:26:14.194Z,2.40
2023-05-10T22:28:45.518Z,2.83
2023-05-10T22:31:17.014Z,3.07
2023-05-10T22:33:48.691Z,2.93
2023-05-10T22:36:20.024Z,3.60
2023-05-10T22:38:51.319Z,2.87
2023-05-10T22:41:22.850Z,3.13
2023-05-10T22:43:54.224Z,3.20
2023-05-10T22:46:25.717Z,3.77
2023-05-10T22:48:57.006Z,4.00
2023-05-10T22:51:28.514Z,3.47
2023-05-10T22:53:59.784Z,4.00
2023-05-10T22:56:31.378Z,3.30
2023-05-10T22:59:02.741Z,4.37
2023-05-10T23:01:34.115Z,4.53
2023-05-10T23:04:05.567Z,4.13
2023-05-10T23:06:36.891Z,4.03
2023-05-10T23:09:08.185Z,4.07
2023-05-10T23:11:39.518Z,3.57
2023-05-10T23:14:10.870Z,3.83
2023-05-10T23:16:42.405Z,3.67
2023-05-10T23:19:13.711Z,3.80
2023-05-10T23:21:45.002Z,4.10
2023-05-10T23:24:16.384Z,3.67
2023-05-10T23:26:47.673Z,3.83
2023-05-10T23:29:19.074Z,4.07
2023-05-10T23:31:51.189Z,3.83
2023-05-10T23:34:22.538Z,3.97
2023-05-10T23:36:53.919Z,4.80
2023-05-10T23:39:25.246Z,4.60
2023-05-10T23:41:56.513Z,4.63
2023-05-10T23:44:27.941Z,4.50
2023-05-10T23:46:59.299Z,4.33
2023-05-10T23:49:30.773Z,3.93
2023-05-10T23:52:02.082Z,4.83
2023-05-10T23:54:33.397Z,4.73
2023-05-10T23:57:04.676Z,5.30
2023-05-10T23:59:35.929Z,5.20
